createdAt,value
2022-11-14T00:02:38.118Z,46.22
2022-11-14T00:05:23.896Z,48.75
2022-11-14T00:08:25.334Z,48.67
2022-11-14T00:11:10.486Z,47.92
2022-11-14T00:13:56.127Z,48.50
2022-11-14T00:16:41.535Z,48.03
2022-11-14T00:19:27.432Z,47.35
2022-11-14T00:22:12.858Z,51.80
2022-11-14T00:24:58.519Z,49.95
2022-11-14T00:27:43.741Z,44.83
2022-11-14T00:30:29.305Z,44.97
2022-11-14T00:33:20.153Z,48.40
2022-11-14T00:36:06.514Z,50.88
2022-11-14T00:38:55.336Z,50.38
2022-11-14T00:41:41.725Z,47.85
2022-11-14T00:44:27.075Z,50.05
2022-11-14T00:47:13.012Z,50.42
2022-11-14T00:49:58.336Z,50.70
2022-11-14T00:52:43.984Z,46.85
2022-11-14T00:55:29.083Z,35.25
2022-11-14T00:58:14.671Z,46.83
2022-11-14T01:00:59.989Z,52.63
2022-11-14T01:03:51.496Z,48.15
2022-11-14T01:06:37.042Z,49.35
2022-11-14T01:09:23.061Z,48.28
2022-11-14T01:12:08.780Z,42.65
2022-11-14T01:14:54.393Z,45.22
2022-11-14T01:17:39.790Z,40.85
2022-11-14T01:20:25.405Z,47.38
2022-11-14T01:23:12.178Z,41.40
2022-11-14T01:26:05.441Z,45.15
2022-11-14T01:28:50.785Z,46.53
2022-11-14T01:31:36.841Z,56.25
2022-11-14T01:34:23.173Z,43.40
2022-11-14T01:39:53.828Z,47.67
2022-11-14T01:42:39.511Z,56.80
2022-11-14T01:45:47.029Z,70.05
2022-11-14T01:48:47.261Z,62.50
2022-11-14T01:51:46.885Z,59.22
2022-11-14T01:54:41.217Z,56.00
2022-11-14T01:57:34.405Z,56.05
2022-11-14T02:00:19.798Z,55.92
2022-11-14T02:03:05.326Z,53.17
2022-11-14T02:05:51.973Z,50.03
2022-11-14T02:08:37.374Z,47.92
2022-11-14T02:11:23.087Z,50.97
2022-11-14T02:14:08.590Z,55.83
2022-11-14T02:17:22.317Z,57.60
2022-11-14T02:20:11.906Z,49.00
2022-11-14T02:22:57.611Z,52.08
2022-11-14T02:28:29.232Z,49.03
2022-11-14T02:31:15.638Z,61.17
2022-11-14T02:34:01.335Z,56.63
2022-11-14T02:36:46.506Z,60.03
2022-11-14T02:39:32.009Z,59.75
2022-11-14T02:42:17.359Z,61.83
2022-11-14T02:45:03.130Z,56.20
2022-11-14T02:47:48.494Z,48.00
2022-11-14T02:50:34.153Z,64.60
2022-11-14T02:53:19.805Z,58.88
2022-11-14T02:56:05.691Z,63.00
2022-11-14T02:58:51.764Z,64.68
2022-11-14T03:01:37.490Z,74.45
2022-11-14T03:04:22.820Z,73.18
2022-11-14T03:07:08.536Z,79.78
2022-11-14T03:09:53.990Z,63.15
2022-11-14T03:12:40.071Z,53.10
2022-11-14T03:15:25.635Z,52.10
2022-11-14T03:18:11.367Z,46.85
2022-11-14T03:20:57.019Z,84.43
2022-11-14T03:23:42.672Z,109.63
2022-11-14T03:26:28.139Z,112.35
2022-11-14T03:29:13.784Z,129.25
2022-11-14T03:31:59.238Z,96.90
2022-11-14T03:34:44.870Z,164.48
2022-11-14T03:37:30.442Z,97.55
2022-11-14T03:40:15.986Z,126.38
2022-11-14T03:43:01.130Z,89.55
2022-11-14T03:45:47.383Z,85.75
2022-11-14T03:48:33.224Z,118.82
2022-11-14T03:54:04.038Z,151.18
2022-11-14T03:56:49.367Z,136.05
2022-11-14T03:59:34.766Z,77.43
2022-11-14T04:02:20.342Z,79.50
2022-11-14T04:05:06.076Z,63.30
2022-11-14T04:07:51.982Z,59.05
2022-11-14T04:10:37.537Z,78.47
2022-11-14T04:13:22.731Z,56.67
2022-11-14T04:16:08.499Z,55.03
2022-11-14T04:18:53.870Z,40.72
2022-11-14T04:21:39.345Z,66.00
2022-11-14T04:24:24.926Z,42.60
2022-11-14T04:27:10.446Z,40.88
2022-11-14T04:29:55.998Z,46.92
2022-11-14T04:32:41.370Z,49.55
2022-11-14T04:35:26.901Z,39.55
2022-11-14T04:38:12.485Z,36.88
2022-11-14T04:40:57.879Z,37.72
2022-11-14T04:43:48.081Z,40.17
2022-11-14T04:46:36.015Z,49.30
2022-11-14T04:49:21.570Z,45.55
2022-11-14T04:52:07.474Z,42.72
2022-11-14T04:54:52.935Z,53.25
2022-11-14T04:57:38.407Z,64.82
2022-11-14T05:00:25.168Z,50.83
2022-11-14T05:03:11.136Z,59.25
2022-11-14T05:06:00.671Z,73.63
2022-11-14T05:08:46.315Z,73.25
2022-11-14T05:11:31.647Z,70.72
2022-11-14T05:14:17.189Z,79.05
2022-11-14T05:17:02.638Z,63.38
2022-11-14T05:19:48.335Z,94.28
2022-11-14T05:22:33.441Z,83.38
2022-11-14T05:25:18.957Z,52.88
2022-11-14T05:28:04.461Z,94.13
2022-11-14T05:30:50.136Z,94.38
2022-11-14T05:33:36.305Z,66.55
2022-11-14T05:36:21.994Z,75.05
2022-11-14T05:39:07.230Z,75.72
2022-11-14T05:41:52.744Z,124.80
2022-11-14T05:44:38.265Z,100.88
2022-11-14T05:47:23.662Z,97.47
2022-11-14T05:50:09.760Z,104.30
2022-11-14T05:52:56.579Z,116.88
2022-11-14T05:55:41.686Z,80.65
2022-11-14T05:58:27.790Z,66.95
2022-11-14T06:01:16.594Z,59.25
2022-11-14T06:04:05.419Z,82.60
2022-11-14T06:06:51.034Z,57.15
2022-11-14T06:09:36.709Z,87.38
2022-11-14T06:12:22.019Z,74.78
2022-11-14T06:15:08.059Z,85.63
2022-11-14T06:17:54.746Z,116.63
2022-11-14T06:20:39.916Z,115.85
2022-11-14T06:23:25.462Z,87.10
2022-11-14T06:26:21.610Z,113.72
2022-11-14T06:31:52.927Z,95.57
2022-11-14T06:34:38.419Z,97.07
2022-11-14T06:37:23.952Z,77.05
2022-11-14T06:40:09.861Z,60.85
2022-11-14T06:42:56.792Z,60.50
2022-11-14T06:45:42.089Z,57.15
2022-11-14T06:48:28.032Z,54.65
2022-11-14T06:51:15.528Z,51.88
2022-11-14T06:54:00.897Z,52.72
2022-11-14T06:56:46.529Z,56.70
2022-11-14T06:59:32.000Z,53.38
2022-11-14T07:02:21.694Z,53.65
2022-11-14T07:05:07.571Z,56.50
2022-11-14T07:10:38.343Z,57.45
2022-11-14T07:13:23.804Z,57.10
2022-11-14T07:16:09.452Z,61.55
2022-11-14T07:21:40.599Z,74.15
2022-11-14T07:24:26.139Z,80.57
2022-11-14T07:27:11.709Z,87.25
2022-11-14T07:29:57.285Z,84.88
2022-11-14T07:32:43.025Z,91.93
2022-11-14T07:35:28.299Z,85.70
2022-11-14T07:38:14.026Z,88.40
2022-11-14T07:41:01.556Z,87.40
2022-11-14T07:43:47.078Z,89.55
2022-11-14T07:46:32.364Z,89.07
2022-11-14T07:49:17.750Z,95.22
2022-11-14T07:52:03.269Z,98.05
2022-11-14T07:54:48.846Z,89.43
2022-11-14T07:57:38.922Z,89.47
2022-11-14T08:00:26.955Z,97.13
2022-11-14T08:03:12.343Z,93.15
2022-11-14T08:06:09.837Z,95.32
2022-11-14T08:08:55.375Z,97.40
2022-11-14T08:11:49.842Z,95.47
2022-11-14T08:14:35.704Z,95.88
2022-11-14T08:17:22.321Z,84.50
2022-11-14T08:20:09.144Z,89.93
2022-11-14T08:23:01.178Z,93.30
2022-11-14T08:25:46.481Z,86.85
2022-11-14T08:28:32.487Z,96.70
2022-11-14T08:31:18.168Z,93.47
2022-11-14T08:34:03.699Z,94.50
2022-11-14T08:36:49.760Z,99.93
2022-11-14T08:39:35.430Z,104.68
2022-11-14T08:42:21.119Z,118.60
2022-11-14T08:45:06.914Z,105.28
2022-11-14T08:47:53.455Z,107.22
2022-11-14T08:50:39.061Z,96.85
2022-11-14T08:53:24.848Z,103.85
2022-11-14T08:56:11.169Z,97.85
2022-11-14T08:58:56.571Z,103.05
2022-11-14T09:01:42.668Z,101.15
2022-11-14T09:04:28.747Z,98.68
2022-11-14T09:07:14.595Z,95.25
2022-11-14T09:10:00.175Z,95.65
2022-11-14T09:12:45.751Z,101.10
2022-11-14T09:15:31.279Z,103.68
2022-11-14T09:18:16.807Z,105.13
2022-11-14T09:21:07.593Z,104.88
2022-11-14T09:23:55.143Z,105.65
2022-11-14T09:26:44.482Z,113.60
2022-11-14T09:29:29.804Z,100.32
2022-11-14T09:32:15.350Z,102.18
2022-11-14T09:35:00.810Z,107.13
2022-11-14T09:37:46.347Z,113.28
2022-11-14T09:40:51.293Z,103.57
2022-11-14T09:43:39.072Z,103.18
2022-11-14T09:46:27.691Z,104.30
2022-11-14T09:49:30.573Z,99.38
2022-11-14T09:52:19.047Z,100.90
2022-11-14T09:55:10.663Z,96.70
2022-11-14T09:57:56.810Z,99.47
2022-11-14T10:01:09.718Z,99.13
2022-11-14T10:04:24.571Z,94.13
2022-11-14T10:07:41.919Z,95.05
2022-11-14T10:13:50.693Z,96.68
2022-11-14T10:16:42.125Z,85.80
2022-11-14T10:19:27.419Z,85.03
2022-11-14T10:22:51.547Z,86.40
2022-11-14T10:26:11.942Z,79.32
2022-11-14T10:29:45.208Z,81.45
2022-11-14T10:32:36.254Z,79.60
2022-11-14T10:35:42.457Z,79.80
2022-11-14T10:38:54.071Z,73.50
2022-11-14T10:41:56.582Z,71.75
2022-11-14T10:45:09.593Z,70.05
2022-11-14T10:48:01.274Z,69.22
2022-11-14T10:50:52.580Z,75.50
2022-11-14T10:53:46.767Z,70.65
2022-11-14T10:56:32.237Z,72.13
2022-11-14T10:59:18.205Z,70.15
2022-11-14T11:02:03.888Z,67.05
2022-11-14T11:04:49.033Z,69.40
2022-11-14T11:08:28.263Z,70.53
2022-11-14T11:11:31.355Z,64.40
2022-11-14T11:14:19.272Z,65.28
2022-11-14T11:17:19.694Z,58.40
2022-11-14T11:20:26.604Z,56.03
2022-11-14T11:23:11.831Z,63.13
2022-11-14T11:26:25.214Z,51.13
2022-11-14T11:29:10.350Z,47.70
2022-11-14T11:31:58.400Z,48.72
2022-11-14T11:34:43.806Z,48.83
2022-11-14T11:37:35.873Z,43.35
2022-11-14T11:40:28.550Z,42.22
2022-11-14T11:43:38.378Z,39.35
2022-11-14T11:46:50.356Z,35.78
2022-11-14T11:49:53.328Z,37.95
2022-11-14T11:52:50.057Z,35.58
2022-11-14T11:55:43.098Z,30.50
2022-11-14T11:58:46.170Z,33.75
2022-11-14T12:01:31.776Z,31.17
2022-11-14T12:04:17.783Z,32.45
2022-11-14T12:07:15.614Z,31.55
2022-11-14T12:10:12.540Z,31.33
2022-11-14T12:13:26.222Z,31.25
2022-11-14T12:16:25.522Z,29.63
2022-11-14T12:19:36.942Z,29.75
2022-11-14T12:23:00.117Z,29.70
2022-11-14T12:25:57.668Z,24.35
2022-11-14T12:28:43.103Z,28.48
2022-11-14T12:31:34.119Z,30.25
2022-11-14T12:34:31.333Z,26.70
2022-11-14T12:37:50.044Z,27.50
2022-11-14T12:40:41.369Z,24.98
2022-11-14T12:43:40.282Z,29.55
2022-11-14T12:46:26.114Z,27.77
2022-11-14T12:49:46.259Z,27.70
2022-11-14T12:52:40.716Z,27.15
2022-11-14T12:55:26.104Z,29.73
2022-11-14T12:58:13.946Z,28.20
2022-11-14T13:01:14.684Z,30.00
2022-11-14T13:04:15.446Z,30.40
2022-11-14T13:07:28.628Z,31.95
2022-11-14T13:10:33.254Z,30.10
2022-11-14T13:13:36.957Z,32.53
2022-11-14T13:16:43.972Z,30.85
2022-11-14T13:19:47.994Z,32.15
2022-11-14T13:22:44.964Z,32.75
2022-11-14T13:25:30.646Z,33.33
2022-11-14T13:28:38.272Z,34.38
2022-11-14T13:31:36.073Z,36.10
2022-11-14T13:34:43.553Z,33.47
2022-11-14T13:38:22.978Z,37.42
2022-11-14T13:41:47.611Z,36.50
2022-11-14T13:44:58.844Z,36.22
2022-11-14T13:48:12.274Z,37.72
2022-11-14T13:51:21.554Z,34.97
2022-11-14T13:54:18.199Z,40.58
2022-11-14T13:57:39.255Z,42.78
2022-11-14T14:00:25.890Z,41.97
2022-11-14T14:03:29.032Z,38.40
2022-11-14T14:06:29.739Z,41.70
2022-11-14T14:09:34.253Z,42.72
2022-11-14T14:12:39.104Z,44.53
2022-11-14T14:15:38.057Z,41.15
2022-11-14T14:18:26.212Z,37.53
2022-11-14T14:21:22.210Z,43.22
2022-11-14T14:25:05.346Z,45.67
2022-11-14T14:28:01.757Z,40.97
2022-11-14T14:31:11.944Z,43.88
2022-11-14T14:33:57.192Z,42.28
2022-11-14T14:36:54.055Z,46.65
2022-11-14T14:39:39.304Z,45.42
2022-11-14T14:42:29.551Z,49.15
2022-11-14T14:45:22.402Z,46.90
2022-11-14T14:48:14.501Z,46.85
2022-11-14T14:51:01.897Z,44.15
2022-11-14T14:53:53.512Z,45.78
2022-11-14T14:56:39.074Z,47.30
2022-11-14T14:59:25.765Z,66.50
2022-11-14T15:02:17.361Z,64.93
2022-11-14T15:05:03.615Z,60.17
2022-11-14T15:07:50.824Z,57.38
2022-11-14T15:10:36.937Z,60.28
2022-11-14T15:13:24.865Z,56.92
2022-11-14T15:16:11.510Z,55.97
2022-11-14T15:18:58.177Z,66.50
2022-11-14T15:21:44.087Z,57.50
2022-11-14T15:24:30.601Z,64.22
2022-11-14T15:27:18.634Z,60.05
2022-11-14T15:30:20.040Z,65.00
2022-11-14T15:33:25.609Z,75.45
2022-11-14T15:36:17.766Z,59.10
2022-11-14T15:39:29.101Z,72.70
2022-11-14T15:42:23.488Z,60.15
2022-11-14T15:45:26.983Z,69.55
2022-11-14T15:48:15.773Z,62.95
2022-11-14T15:51:00.989Z,74.85
2022-11-14T15:53:49.220Z,55.90
2022-11-14T15:56:34.588Z,61.15
2022-11-14T15:59:20.326Z,57.47
2022-11-14T16:02:46.418Z,75.00
2022-11-14T16:05:33.063Z,66.43
2022-11-14T16:08:18.342Z,66.68
2022-11-14T16:11:03.745Z,70.18
2022-11-14T16:13:49.390Z,81.57
2022-11-14T16:16:34.697Z,74.45
2022-11-14T16:19:21.978Z,75.22
2022-11-14T16:22:11.953Z,72.57
2022-11-14T16:25:00.455Z,74.45
2022-11-14T16:27:46.538Z,70.07
2022-11-14T16:30:32.064Z,76.10
2022-11-14T16:33:17.528Z,80.68
2022-11-14T16:36:03.123Z,77.63
2022-11-14T16:38:52.227Z,78.88
2022-11-14T16:41:38.537Z,83.40
2022-11-14T16:44:24.830Z,85.18
2022-11-14T16:47:14.458Z,77.22
2022-11-14T16:50:01.398Z,99.60
2022-11-14T16:52:47.182Z,83.63
2022-11-14T16:55:32.275Z,87.68
2022-11-14T16:58:18.019Z,89.65
2022-11-14T17:01:04.436Z,99.82
2022-11-14T17:03:51.230Z,96.47
2022-11-14T17:06:36.577Z,97.07
2022-11-14T17:09:22.039Z,80.97
2022-11-14T17:12:08.151Z,98.22
2022-11-14T17:14:54.720Z,95.93
2022-11-14T17:17:40.001Z,93.65
2022-11-14T17:20:25.641Z,94.40
2022-11-14T17:23:10.928Z,106.75
2022-11-14T17:26:05.106Z,93.93
2022-11-14T17:28:50.678Z,98.60
2022-11-14T17:31:38.379Z,91.55
2022-11-14T17:34:25.670Z,87.28
2022-11-14T17:37:11.068Z,104.70
2022-11-14T17:39:56.688Z,98.53
2022-11-14T17:42:41.887Z,104.22
2022-11-14T17:45:27.416Z,110.28
2022-11-14T17:48:13.254Z,95.75
2022-11-14T17:53:48.950Z,87.63
2022-11-14T17:56:34.170Z,96.63
2022-11-14T17:59:20.492Z,86.90
2022-11-14T18:02:05.671Z,95.72
2022-11-14T18:04:51.105Z,90.63
2022-11-14T18:07:36.587Z,108.00
2022-11-14T18:10:22.070Z,109.13
2022-11-14T18:13:08.129Z,100.47
2022-11-14T18:15:53.761Z,97.55
2022-11-14T18:18:39.346Z,108.78
2022-11-14T18:21:25.776Z,93.97
2022-11-14T18:24:13.878Z,91.63
2022-11-14T18:26:59.730Z,99.97
2022-11-14T18:29:45.688Z,91.25
2022-11-14T18:32:31.996Z,86.38
2022-11-14T18:35:17.776Z,88.78
2022-11-14T18:38:04.001Z,89.30
2022-11-14T18:40:55.837Z,87.47
2022-11-14T18:43:44.469Z,83.68
2022-11-14T18:46:36.899Z,82.03
2022-11-14T18:49:23.298Z,94.40
2022-11-14T18:52:12.867Z,84.93
2022-11-14T18:55:04.715Z,96.07
2022-11-14T18:57:50.375Z,85.60
2022-11-14T19:00:36.098Z,94.68
2022-11-14T19:03:21.477Z,84.22
2022-11-14T19:06:08.934Z,73.03
2022-11-14T19:09:02.740Z,82.75
2022-11-14T19:12:08.937Z,81.85
2022-11-14T19:14:56.399Z,82.45
2022-11-14T19:17:43.021Z,83.03
2022-11-14T19:20:28.163Z,85.47
2022-11-14T19:23:13.650Z,86.80
2022-11-14T19:26:00.717Z,95.82
2022-11-14T19:28:46.269Z,94.70
2022-11-14T19:31:33.104Z,94.07
2022-11-14T19:34:18.681Z,86.38
2022-11-14T19:37:04.107Z,98.50
2022-11-14T19:39:52.433Z,87.93
2022-11-14T19:42:38.146Z,84.55
2022-11-14T19:45:24.003Z,111.78
2022-11-14T19:48:09.353Z,91.70
2022-11-14T19:51:12.571Z,98.07
2022-11-14T19:53:59.456Z,85.45
2022-11-14T19:56:45.091Z,101.32
2022-11-14T19:59:30.557Z,89.72
2022-11-14T20:02:16.167Z,94.45
2022-11-14T20:05:01.370Z,157.93
2022-11-14T20:07:46.940Z,102.82
2022-11-14T20:10:47.409Z,92.50
2022-11-14T20:13:40.378Z,86.00
2022-11-14T20:16:28.232Z,90.45
2022-11-14T20:19:14.239Z,81.90
2022-11-14T20:21:59.701Z,86.18
2022-11-14T20:24:45.315Z,85.10
2022-11-14T20:27:30.904Z,80.28
2022-11-14T20:30:16.718Z,86.78
2022-11-14T20:33:02.097Z,83.22
2022-11-14T20:35:48.046Z,74.18
2022-11-14T20:38:33.382Z,74.80
2022-11-14T20:41:20.112Z,79.38
2022-11-14T20:44:05.695Z,76.22
2022-11-14T20:46:51.304Z,69.80
2022-11-14T20:49:36.617Z,78.18
2022-11-14T20:52:22.034Z,71.50
2022-11-14T20:55:11.751Z,78.45
2022-11-14T20:57:57.357Z,81.07
2022-11-14T21:00:42.922Z,84.20
2022-11-14T21:03:28.783Z,94.18
2022-11-14T21:06:16.337Z,77.63
2022-11-14T21:09:01.845Z,84.57
2022-11-14T21:11:47.296Z,79.57
2022-11-14T21:14:32.815Z,89.45
2022-11-14T21:17:19.042Z,90.53
2022-11-14T21:20:04.865Z,95.18
2022-11-14T21:22:50.554Z,111.82
2022-11-14T21:25:36.159Z,107.70
2022-11-14T21:28:21.779Z,113.80
2022-11-14T21:31:37.425Z,113.57
2022-11-14T21:34:22.923Z,103.93
2022-11-14T21:37:08.508Z,109.28
2022-11-14T21:39:53.907Z,102.82
2022-11-14T21:42:42.891Z,108.60
2022-11-14T21:45:28.177Z,109.20
2022-11-14T21:48:13.715Z,99.38
2022-11-14T21:51:08.082Z,97.97
2022-11-14T21:53:58.258Z,103.22
2022-11-14T21:56:43.828Z,103.57
2022-11-14T21:59:29.155Z,103.72
2022-11-14T22:02:33.138Z,109.43
2022-11-14T22:05:18.669Z,104.60
2022-11-14T22:08:04.218Z,102.18
2022-11-14T22:10:50.045Z,110.13
2022-11-14T22:13:35.329Z,104.22
2022-11-14T22:16:21.063Z,110.70
2022-11-14T22:21:52.966Z,116.45
2022-11-14T22:24:38.513Z,117.30
2022-11-14T22:27:24.208Z,121.70
2022-11-14T22:30:10.427Z,118.93
2022-11-14T22:32:55.720Z,123.78
2022-11-14T22:35:41.012Z,116.70
2022-11-14T22:38:29.616Z,111.15
2022-11-14T22:41:31.911Z,126.25
2022-11-14T22:44:18.117Z,111.30
2022-11-14T22:47:03.564Z,109.30
2022-11-14T22:49:49.155Z,108.22
2022-11-14T22:52:34.635Z,105.35
2022-11-14T22:55:20.141Z,101.03
2022-11-14T22:58:05.601Z,108.15
2022-11-14T23:00:51.958Z,105.38
2022-11-14T23:03:37.732Z,100.25
2022-11-14T23:06:24.322Z,108.03
2022-11-14T23:09:09.882Z,104.75
2022-11-14T23:11:55.481Z,94.93
2022-11-14T23:14:40.897Z,99.25
2022-11-14T23:17:26.479Z,105.57
2022-11-14T23:20:16.245Z,101.38
2022-11-14T23:23:02.343Z,103.45
2022-11-14T23:25:47.706Z,98.70
2022-11-14T23:28:33.504Z,107.90
2022-11-14T23:31:19.141Z,107.88
2022-11-14T23:34:06.447Z,105.43
2022-11-14T23:36:51.698Z,97.75
2022-11-14T23:39:37.337Z,99.68
2022-11-14T23:42:23.366Z,99.97
2022-11-14T23:45:09.406Z,100.80
2022-11-14T23:47:54.852Z,103.60
2022-11-14T23:50:40.395Z,98.78
2022-11-14T23:53:25.955Z,98.50
2022-11-14T23:56:15.151Z,99.35
2022-11-14T23:59:00.259Z,96.00
